Time;durP1;ratioP1;P1;durP2;ratioP2;P2;SDS_P1;SDS_P2;PMS_P1;PMS_P2;Temp;Humidity;BMP_temperature;BMP_pressure;BME280_temperature;BME280_humidity;BME280_pressure;Samples;Min_cycle;Max_cycle;Signal;HPM_P1;HPM_P2
2021/08/07 00:01:42;;;;;;;18.92;3.40;;;;;;;;;;5034307;28;20274;-62
2021/08/07 00:04:10;;;;;;;12.02;2.97;;;;;;;;;;5024935;28;20052;-62
2021/08/07 00:06:38;;;;;;;17.48;3.45;;;;;;;;;;5024682;28;20120;-62
2021/08/07 00:09:03;;;;;;;13.30;3.85;;;;;;;;;;5011370;28;20798;-63
2021/08/07 00:11:31;;;;;;;16.23;3.40;;;;;;;;;;5039924;28;20036;-63
2021/08/07 00:14:05;;;;;;;10.75;2.90;;;;;;;;;;5036137;28;20040;-62
2021/08/07 00:16:32;;;;;;;17.05;3.25;;;;;;;;;;5036839;28;20060;-62
2021/08/07 00:19:00;;;;;;;12.18;3.28;;;;;;;;;;5039772;28;20029;-62
2021/08/07 00:21:29;;;;;;;14.02;2.90;;;;;;;;;;5038175;28;20193;-62
2021/08/07 00:23:57;;;;;;;16.95;2.95;;;;;;;;;;5020191;28;20598;-63
2021/08/07 00:26:22;;;;;;;16.85;3.08;;;;;;;;;;5022147;28;20080;-63
2021/08/07 00:28:48;;;;;;;5.47;2.63;;;;;;;;;;5039603;28;20136;-63
2021/08/07 00:31:14;;;;;;;6.55;2.60;;;;;;;;;;5052380;28;20044;-63
2021/08/07 00:33:41;;;;;;;12.43;3.30;;;;;;;;;;5038107;28;22000;-63
2021/08/07 00:36:09;;;;;;;16.90;3.67;;;;;;;;;;5035502;28;20033;-61
2021/08/07 00:38:37;;;;;;;11.82;3.05;;;;;;;;;;5039630;28;20043;-62
2021/08/07 00:41:02;;;;;;;13.85;3.13;;;;;;;;;;5046068;28;20029;-62
2021/08/07 00:43:32;;;;;;;10.45;2.80;;;;;;;;;;5038783;28;20024;-62
2021/08/07 00:45:58;;;;;;;10.65;3.35;;;;;;;;;;5042717;28;20025;-62
2021/08/07 00:48:26;;;;;;;11.65;3.15;;;;;;;;;;5039929;28;20130;-62
2021/08/07 00:50:54;;;;;;;8.65;3.78;;;;;;;;;;5037198;28;20041;-62
2021/08/07 00:53:20;;;;;;;14.85;3.33;;;;;;;;;;5026303;28;20036;-62
2021/08/07 00:55:45;;;;;;;20.38;3.10;;;;;;;;;;5034995;28;20039;-62
2021/08/07 00:58:15;;;;;;;7.82;3.28;;;;;;;;;;5039886;28;20056;-62
2021/08/07 01:00:43;;;;;;;9.23;3.55;;;;;;;;;;5037582;28;20021;-62
2021/08/07 01:03:23;;;;;;;8.63;3.10;;;;;;;;;;5006071;28;20629;-62
2021/08/07 01:06:00;;;;;;;12.13;3.85;;;;;;;;;;5022275;28;20032;-62
2021/08/07 01:08:33;;;;;;;8.15;2.72;;;;;;;;;;5039451;28;20090;-61
2021/08/07 01:11:04;;;;;;;4.85;2.97;;;;;;;;;;5044595;28;20091;-62
2021/08/07 01:13:42;;;;;;;12.23;3.45;;;;;;;;;;5051697;28;20045;-63
2021/08/07 01:16:12;;;;;;;15.27;3.05;;;;;;;;;;5037276;28;20056;-61
2021/08/07 01:18:41;;;;;;;12.15;3.72;;;;;;;;;;5037624;28;20033;-63
2021/08/07 01:21:11;;;;;;;7.88;3.55;;;;;;;;;;5036708;28;20031;-62
2021/08/07 01:23:50;;;;;;;17.17;3.42;;;;;;;;;;5043586;28;20030;-61
2021/08/07 01:26:22;;;;;;;10.57;3.58;;;;;;;;;;5034599;28;20071;-62
2021/08/07 01:28:53;;;;;;;12.52;3.50;;;;;;;;;;5037085;28;20101;-61
2021/08/07 01:31:21;;;;;;;7.35;4.25;;;;;;;;;;5036170;28;20857;-62
2021/08/07 01:33:47;;;;;;;10.10;4.63;;;;;;;;;;5037400;28;20025;-62
2021/08/07 01:36:13;;;;;;;8.70;4.15;;;;;;;;;;5036427;28;20170;-63
2021/08/07 01:38:43;;;;;;;13.90;3.97;;;;;;;;;;5026575;28;20027;-63
2021/08/07 01:41:18;;;;;;;8.82;4.10;;;;;;;;;;5039136;28;20037;-61
2021/08/07 01:43:44;;;;;;;;;;;;;;;;;;5036714;28;20484;-61
2021/08/07 01:46:12;;;;;;;13.55;3.97;;;;;;;;;;5039026;28;19924;-62
2021/08/07 01:48:42;;;;;;;11.80;3.78;;;;;;;;;;5036510;28;20116;-62
2021/08/07 01:51:12;;;;;;;12.00;3.88;;;;;;;;;;5035578;28;20033;-62
2021/08/07 01:53:37;;;;;;;7.97;4.28;;;;;;;;;;5034099;28;20067;-62
2021/08/07 01:56:04;;;;;;;13.57;3.70;;;;;;;;;;5030578;28;20078;-61
2021/08/07 01:58:38;;;;;;;9.02;4.20;;;;;;;;;;5033695;28;20043;-62
2021/08/07 02:01:09;;;;;;;17.70;4.70;;;;;;;;;;5041304;28;20064;-62
2021/08/07 02:03:39;;;;;;;9.23;4.35;;;;;;;;;;5036113;28;20727;-61
2021/08/07 02:06:05;;;;;;;10.75;4.13;;;;;;;;;;5036831;28;20037;-62
2021/08/07 02:08:33;;;;;;;12.07;4.38;;;;;;;;;;5036720;28;20088;-62
2021/08/07 02:11:02;;;;;;;10.93;3.60;;;;;;;;;;5036195;28;20032;-62
2021/08/07 02:13:32;;;;;;;12.77;4.28;;;;;;;;;;5025180;28;20041;-61
2021/08/07 02:15:58;;;;;;;9.90;3.55;;;;;;;;;;5037478;28;20036;-63
2021/08/07 02:18:29;;;;;;;7.10;3.55;;;;;;;;;;5034958;28;20573;-62
2021/08/07 02:20:59;;;;;;;14.00;3.20;;;;;;;;;;5035931;28;20029;-61
2021/08/07 02:23:30;;;;;;;7.88;3.25;;;;;;;;;;5035077;28;20025;-62
2021/08/07 02:26:00;;;;;;;11.15;3.05;;;;;;;;;;5039885;28;20071;-62
2021/08/07 02:28:28;;;;;;;5.57;3.00;;;;;;;;;;5037515;28;20025;-62
2021/08/07 02:30:54;;;;;;;9.07;2.80;;;;;;;;;;5037391;28;20060;-62
2021/08/07 02:33:21;;;;;;;8.43;2.35;;;;;;;;;;5026171;28;20563;-61
2021/08/07 02:35:46;;;;;;;9.88;3.08;;;;;;;;;;5018961;28;20032;-63
2021/08/07 02:38:13;;;;;;;9.73;2.40;;;;;;;;;;5033590;28;20325;-63
2021/08/07 02:40:41;;;;;;;7.15;2.90;;;;;;;;;;5035691;28;20021;-64
2021/08/07 02:43:12;;;;;;;6.00;2.63;;;;;;;;;;5034665;28;20069;-62
2021/08/07 02:45:40;;;;;;;10.98;3.05;;;;;;;;;;5035548;28;20029;-62
2021/08/07 02:48:09;;;;;;;8.05;2.70;;;;;;;;;;5037541;28;20028;-63
2021/08/07 02:50:40;;;;;;;9.05;2.50;;;;;;;;;;5035024;28;20116;-63
2021/08/07 02:53:06;;;;;;;12.75;3.05;;;;;;;;;;5036513;28;20105;-62
2021/08/07 02:55:34;;;;;;;15.05;2.92;;;;;;;;;;5050138;28;20116;-62
2021/08/07 02:58:03;;;;;;;7.75;3.00;;;;;;;;;;5017828;28;20093;-62
2021/08/07 03:00:34;;;;;;;8.90;2.95;;;;;;;;;;5051144;28;20029;-62
2021/08/07 03:03:02;;;;;;;11.23;2.85;;;;;;;;;;5035978;28;20039;-63
2021/08/07 03:05:27;;;;;;;8.45;2.80;;;;;;;;;;5034986;28;20126;-62
2021/08/07 03:07:53;;;;;;;6.82;2.47;;;;;;;;;;5049225;28;20025;-62
2021/08/07 03:10:19;;;;;;;11.73;2.75;;;;;;;;;;5034141;28;20027;-62
2021/08/07 03:12:47;;;;;;;16.02;2.78;;;;;;;;;;5034976;28;20116;-62
2021/08/07 03:15:17;;;;;;;10.73;2.85;;;;;;;;;;5032978;28;20044;-63
2021/08/07 03:17:45;;;;;;;7.05;2.47;;;;;;;;;;5019354;28;20136;-63
2021/08/07 03:20:13;;;;;;;5.88;2.85;;;;;;;;;;5032947;28;20025;-62
2021/08/07 03:22:41;;;;;;;16.27;3.90;;;;;;;;;;5035549;28;20033;-64
2021/08/07 03:25:09;;;;;;;8.35;2.42;;;;;;;;;;5033893;28;20037;-63
2021/08/07 03:27:34;;;;;;;7.07;2.45;;;;;;;;;;5048666;28;20236;-63
2021/08/07 03:30:04;;;;;;;9.80;3.03;;;;;;;;;;5035518;28;20037;-62
2021/08/07 03:32:35;;;;;;;10.07;2.83;;;;;;;;;;5035416;28;20064;-61
2021/08/07 03:35:05;;;;;;;12.30;3.22;;;;;;;;;;5042195;28;20032;-62
2021/08/07 03:37:31;;;;;;;5.40;2.35;;;;;;;;;;5018844;28;20100;-62
2021/08/07 03:39:56;;;;;;;10.02;3.85;;;;;;;;;;5023575;28;20864;-62
2021/08/07 03:42:26;;;;;;;14.70;3.20;;;;;;;;;;5038035;28;20559;-61
2021/08/07 03:44:55;;;;;;;7.13;2.72;;;;;;;;;;5040586;28;20025;-62
2021/08/07 03:47:25;;;;;;;9.20;3.13;;;;;;;;;;5045977;28;20036;-62
2021/08/07 03:49:51;;;;;;;7.75;2.88;;;;;;;;;;5024178;28;20033;-64
2021/08/07 03:52:19;;;;;;;9.32;2.40;;;;;;;;;;5036521;28;20035;-63
2021/08/07 03:54:48;;;;;;;6.38;3.10;;;;;;;;;;5025012;28;20060;-62
2021/08/07 03:57:13;;;;;;;8.10;2.85;;;;;;;;;;5043987;28;20420;-63
2021/08/07 03:59:39;;;;;;;14.75;3.72;;;;;;;;;;5038125;28;20411;-63
2021/08/07 04:02:10;;;;;;;7.53;3.15;;;;;;;;;;5038497;28;20029;-62
2021/08/07 04:04:35;;;;;;;8.32;3.15;;;;;;;;;;5037949;28;20032;-62
2021/08/07 04:07:01;;;;;;;16.15;3.38;;;;;;;;;;5036498;28;20028;-62
2021/08/07 04:09:29;;;;;;;6.07;3.00;;;;;;;;;;5036694;28;20070;-60
2021/08/07 04:11:59;;;;;;;6.07;2.70;;;;;;;;;;5036963;28;20032;-63
2021/08/07 04:14:25;;;;;;;10.57;3.40;;;;;;;;;;5024797;28;20045;-63
2021/08/07 04:16:53;;;;;;;10.23;3.42;;;;;;;;;;5039603;28;20117;-63
2021/08/07 04:19:22;;;;;;;8.70;3.58;;;;;;;;;;5022363;28;20513;-63
2021/08/07 04:21:48;;;;;;;10.18;3.05;;;;;;;;;;5039486;28;20089;-63
2021/08/07 04:24:13;;;;;;;18.08;3.47;;;;;;;;;;5039495;28;20600;-63
2021/08/07 04:26:41;;;;;;;11.80;3.13;;;;;;;;;;5037221;28;20129;-62
2021/08/07 04:29:09;;;;;;;6.07;2.88;;;;;;;;;;5038395;28;20438;-62
2021/08/07 04:31:36;;;;;;;12.63;2.95;;;;;;;;;;5035319;28;20063;-63
2021/08/07 04:34:08;;;;;;;9.18;3.03;;;;;;;;;;5037755;28;20127;-63
2021/08/07 04:36:33;;;;;;;12.15;3.65;;;;;;;;;;5018830;28;20183;-62
2021/08/07 04:39:01;;;;;;;9.85;3.28;;;;;;;;;;5036140;28;20025;-62
2021/08/07 04:41:29;;;;;;;7.70;3.08;;;;;;;;;;5038977;28;20127;-63
2021/08/07 04:44:02;;;;;;;11.18;3.25;;;;;;;;;;5037340;28;20036;-62
2021/08/07 04:46:29;;;;;;;11.13;2.55;;;;;;;;;;5028584;28;20192;-63
2021/08/07 04:48:57;;;;;;;6.57;2.75;;;;;;;;;;5018372;28;20025;-63
2021/08/07 04:51:25;;;;;;;6.55;2.67;;;;;;;;;;5035287;28;21013;-62
2021/08/07 04:53:52;;;;;;;10.88;2.97;;;;;;;;;;5037291;28;20111;-63
2021/08/07 04:56:25;;;;;;;5.22;2.17;;;;;;;;;;5042645;28;20049;-62
2021/08/07 04:58:51;;;;;;;4.03;1.95;;;;;;;;;;5017837;28;20123;-62
2021/08/07 05:01:18;;;;;;;9.43;2.20;;;;;;;;;;5040083;28;20641;-61
2021/08/07 05:03:46;;;;;;;6.25;1.90;;;;;;;;;;5035069;28;20044;-62
2021/08/07 05:06:14;;;;;;;7.40;2.15;;;;;;;;;;5038478;28;20029;-61
2021/08/07 05:08:42;;;;;;;14.75;3.15;;;;;;;;;;5034720;28;20052;-64
2021/08/07 05:11:07;;;;;;;7.38;1.77;;;;;;;;;;5052213;28;20585;-62
2021/08/07 05:13:36;;;;;;;4.50;1.90;;;;;;;;;;5039355;28;20037;-63
2021/08/07 05:16:04;;;;;;;5.53;1.80;;;;;;;;;;5036954;28;20024;-62
2021/08/07 05:18:32;;;;;;;9.05;2.10;;;;;;;;;;5036764;28;20033;-62
2021/08/07 05:21:02;;;;;;;10.18;1.77;;;;;;;;;;5023710;28;20036;-63
2021/08/07 05:23:30;;;;;;;5.82;1.98;;;;;;;;;;5021655;28;20039;-62
2021/08/07 05:25:57;;;;;;;10.27;2.25;;;;;;;;;;5026437;28;20502;-63
2021/08/07 05:28:25;;;;;;;5.00;1.60;;;;;;;;;;5023776;28;20123;-62
2021/08/07 05:30:51;;;;;;;4.88;1.40;;;;;;;;;;5036683;28;20031;-64
2021/08/07 05:33:19;;;;;;;5.65;1.73;;;;;;;;;;5035708;28;20060;-63
2021/08/07 05:35:45;;;;;;;10.18;2.22;;;;;;;;;;5034083;28;20040;-62
2021/08/07 05:38:13;;;;;;;7.68;1.95;;;;;;;;;;5017866;28;20044;-63
2021/08/07 05:40:38;;;;;;;7.55;2.10;;;;;;;;;;5038029;28;20114;-63
2021/08/07 05:43:09;;;;;;;9.45;2.03;;;;;;;;;;5033264;28;20033;-62
2021/08/07 05:45:36;;;;;;;10.18;2.15;;;;;;;;;;5038237;28;20059;-62
2021/08/07 05:48:04;;;;;;;7.10;1.98;;;;;;;;;;5033241;28;21081;-63
2021/08/07 05:50:29;;;;;;;9.95;2.13;;;;;;;;;;5042058;28;20620;-62
2021/08/07 05:52:55;;;;;;;8.48;2.03;;;;;;;;;;5033379;28;20033;-63
2021/08/07 05:55:21;;;;;;;12.20;2.58;;;;;;;;;;5035644;28;20051;-62
2021/08/07 05:57:51;;;;;;;7.13;1.85;;;;;;;;;;5034493;28;20163;-63
2021/08/07 06:00:17;;;;;;;8.82;2.10;;;;;;;;;;5027780;28;20037;-63
2021/08/07 06:02:45;;;;;;;5.75;2.00;;;;;;;;;;5032701;28;20127;-63
2021/08/07 06:05:10;;;;;;;10.23;2.30;;;;;;;;;;5017765;28;20033;-63
2021/08/07 06:07:36;;;;;;;6.32;1.80;;;;;;;;;;5015470;28;20053;-63
2021/08/07 06:10:01;;;;;;;4.35;1.60;;;;;;;;;;5028904;28;20111;-63
2021/08/07 06:12:29;;;;;;;12.27;2.15;;;;;;;;;;5029188;28;20126;-62
2021/08/07 06:14:57;;;;;;;9.27;1.70;;;;;;;;;;5027497;28;20036;-63
2021/08/07 06:17:25;;;;;;;12.30;2.38;;;;;;;;;;5013990;28;20447;-62
2021/08/07 06:19:55;;;;;;;7.90;2.45;;;;;;;;;;5029338;28;20045;-62
2021/08/07 06:22:21;;;;;;;5.35;1.77;;;;;;;;;;5013860;28;20165;-63
2021/08/07 06:24:46;;;;;;;8.60;1.70;;;;;;;;;;5026787;28;20685;-62
2021/08/07 06:27:12;;;;;;;8.48;1.92;;;;;;;;;;5035951;28;20044;-62
2021/08/07 06:29:40;;;;;;;7.78;1.52;;;;;;;;;;5057389;28;20028;-63
2021/08/07 06:32:08;;;;;;;4.63;1.30;;;;;;;;;;5045823;28;20036;-62
2021/08/07 06:34:36;;;;;;;8.73;1.92;;;;;;;;;;5063575;28;20467;-62
2021/08/07 06:37:02;;;;;;;6.43;1.50;;;;;;;;;;5061101;28;20119;-61
2021/08/07 06:39:30;;;;;;;5.47;1.45;;;;;;;;;;5043025;28;20198;-61
2021/08/07 06:41:58;;;;;;;7.95;1.25;;;;;;;;;;5057466;28;20055;-61
2021/08/07 06:44:26;;;;;;;7.65;1.92;;;;;;;;;;5059009;28;20036;-62
2021/08/07 06:46:56;;;;;;;6.13;1.77;;;;;;;;;;5059206;28;20036;-62
2021/08/07 06:49:23;;;;;;;5.35;1.65;;;;;;;;;;5028995;28;20041;-61
2021/08/07 06:51:49;;;;;;;6.07;1.35;;;;;;;;;;5059857;28;20035;-61
2021/08/07 06:54:19;;;;;;;3.80;1.33;;;;;;;;;;5041632;28;20036;-61
2021/08/07 06:56:48;;;;;;;8.82;1.58;;;;;;;;;;5059607;28;20043;-60
2021/08/07 06:59:13;;;;;;;9.48;1.80;;;;;;;;;;5061139;28;20162;-63
2021/08/07 07:01:39;;;;;;;4.60;1.35;;;;;;;;;;5060340;28;20021;-61
2021/08/07 07:04:09;;;;;;;9.13;1.80;;;;;;;;;;5058686;28;20158;-61
2021/08/07 07:06:34;;;;;;;9.82;1.75;;;;;;;;;;5071018;28;20045;-61
2021/08/07 07:09:02;;;;;;;5.03;1.38;;;;;;;;;;5057512;28;20025;-63
2021/08/07 07:11:27;;;;;;;5.10;1.33;;;;;;;;;;5059436;28;20661;-63
2021/08/07 07:13:57;;;;;;;8.63;1.60;;;;;;;;;;5059419;28;20025;-62
2021/08/07 07:16:25;;;;;;;6.43;1.65;;;;;;;;;;5062657;28;20041;-62
2021/08/07 07:18:51;;;;;;;4.18;1.77;;;;;;;;;;5063555;28;20400;-61
2021/08/07 07:21:18;;;;;;;7.28;1.80;;;;;;;;;;5065816;28;20177;-61
2021/08/07 07:23:48;;;;;;;9.32;2.13;;;;;;;;;;5064971;28;20431;-61
2021/08/07 07:26:16;;;;;;;2.92;1.33;;;;;;;;;;5066619;28;20055;-62
2021/08/07 07:28:44;;;;;;;5.50;1.90;;;;;;;;;;5048274;28;20111;-61
2021/08/07 07:31:13;;;;;;;11.95;2.15;;;;;;;;;;5062165;28;20051;-61
2021/08/07 07:33:39;;;;;;;9.18;2.17;;;;;;;;;;5065811;28;20157;-61
2021/08/07 07:36:04;;;;;;;8.00;1.65;;;;;;;;;;5048603;28;20054;-62
2021/08/07 07:38:32;;;;;;;8.00;1.15;;;;;;;;;;5062710;28;20025;-61
2021/08/07 07:40:57;;;;;;;8.98;1.60;;;;;;;;;;5031350;28;20028;-63
2021/08/07 07:43:26;;;;;;;6.97;1.50;;;;;;;;;;5060799;28;20379;-62
2021/08/07 07:45:56;;;;;;;4.15;1.83;;;;;;;;;;5044417;28;20074;-61
2021/08/07 07:48:25;;;;;;;11.05;1.70;;;;;;;;;;5061634;28;20029;-62
2021/08/07 07:50:51;;;;;;;6.43;1.20;;;;;;;;;;5047531;28;20547;-62
2021/08/07 07:53:17;;;;;;;8.38;1.67;;;;;;;;;;5050131;28;20044;-63
2021/08/07 07:55:44;;;;;;;3.60;1.38;;;;;;;;;;5042517;28;20062;-62
2021/08/07 07:58:10;;;;;;;5.13;1.45;;;;;;;;;;5045814;28;20037;-61
2021/08/07 08:00:35;;;;;;;9.95;1.60;;;;;;;;;;5046602;28;20061;-62
2021/08/07 08:03:03;;;;;;;5.32;1.30;;;;;;;;;;5059072;28;20180;-62
2021/08/07 08:05:29;;;;;;;6.88;1.55;;;;;;;;;;5043457;28;20442;-61
2021/08/07 08:07:57;;;;;;;5.97;1.25;;;;;;;;;;5059585;28;20056;-62
2021/08/07 08:10:25;;;;;;;6.90;1.30;;;;;;;;;;5047471;28;20045;-63
2021/08/07 08:12:55;;;;;;;4.78;1.58;;;;;;;;;;5064322;28;20032;-63
2021/08/07 08:15:23;;;;;;;3.00;1.40;;;;;;;;;;5041208;28;20131;-63
2021/08/07 08:17:51;;;;;;;7.38;1.27;;;;;;;;;;5060042;28;20016;-62
2021/08/07 08:20:16;;;;;;;4.40;1.05;;;;;;;;;;5045918;28;20048;-63
2021/08/07 08:22:47;;;;;;;3.47;1.30;;;;;;;;;;5062210;28;20596;-62
2021/08/07 08:25:13;;;;;;;4.38;1.20;;;;;;;;;;5063079;28;20037;-61
2021/08/07 08:27:39;;;;;;;5.22;1.17;;;;;;;;;;5044226;28;20016;-62
2021/08/07 08:30:10;;;;;;;9.98;1.00;;;;;;;;;;5062210;28;20188;-61
2021/08/07 08:32:35;;;;;;;7.28;1.17;;;;;;;;;;5062485;28;20051;-63
2021/08/07 08:35:01;;;;;;;5.38;1.10;;;;;;;;;;5062792;28;20041;-62
2021/08/07 08:37:30;;;;;;;5.20;0.90;;;;;;;;;;5059663;28;20024;-61
2021/08/07 08:39:58;;;;;;;3.47;0.93;;;;;;;;;;5062158;28;20032;-62
2021/08/07 08:42:24;;;;;;;3.63;0.70;;;;;;;;;;5033121;28;20036;-62
2021/08/07 08:44:52;;;;;;;4.80;1.17;;;;;;;;;;5057326;28;20036;-65
2021/08/07 08:47:20;;;;;;;2.60;1.02;;;;;;;;;;5059698;28;20036;-63
2021/08/07 08:49:50;;;;;;;6.78;1.30;;;;;;;;;;5061034;28;20041;-64
2021/08/07 08:52:23;;;;;;;7.10;0.90;;;;;;;;;;5059413;28;20027;-63
2021/08/07 08:54:49;;;;;;;4.20;0.98;;;;;;;;;;5040213;28;20123;-62
2021/08/07 08:57:19;;;;;;;5.28;0.57;;;;;;;;;;5061905;28;20111;-63
2021/08/07 08:59:48;;;;;;;6.07;0.77;;;;;;;;;;5043499;28;20505;-63
2021/08/07 09:02:14;;;;;;;5.35;0.77;;;;;;;;;;5059125;28;20466;-64
2021/08/07 09:04:40;;;;;;;7.20;0.82;;;;;;;;;;5062017;28;20033;-64
2021/08/07 09:07:10;;;;;;;2.38;0.80;;;;;;;;;;5062251;28;20052;-63
2021/08/07 09:09:41;;;;;;;3.33;1.08;;;;;;;;;;5056649;28;20032;-65
2021/08/07 09:12:10;;;;;;;5.50;0.90;;;;;;;;;;5063702;28;20032;-63
2021/08/07 09:14:37;;;;;;;1.20;0.60;;;;;;;;;;5061022;28;21217;-65
2021/08/07 09:17:07;;;;;;;3.75;0.70;;;;;;;;;;5056759;28;20055;-64
2021/08/07 09:19:38;;;;;;;4.43;1.08;;;;;;;;;;5043205;28;20052;-64
2021/08/07 09:22:10;;;;;;;3.05;0.80;;;;;;;;;;5063800;28;20044;-65
2021/08/07 09:25:03;;;;;;;3.67;1.30;;;;;;;;;;5062184;28;20025;-65
2021/08/07 09:27:30;;;;;;;4.03;0.80;;;;;;;;;;5011251;28;20045;-64
2021/08/07 09:29:56;;;;;;;2.08;0.52;;;;;;;;;;5060459;28;20016;-63
2021/08/07 09:32:22;;;;;;;3.95;1.15;;;;;;;;;;5058143;28;20043;-64
2021/08/07 09:35:09;;;;;;;1.60;0.75;;;;;;;;;;5050366;28;20033;-64
2021/08/07 09:37:34;;;;;;;2.72;0.68;;;;;;;;;;5045949;28;20114;-65
2021/08/07 09:40:06;;;;;;;1.08;0.47;;;;;;;;;;5051665;28;20016;-61
2021/08/07 09:42:32;;;;;;;4.18;0.70;;;;;;;;;;5042856;28;21773;-62
2021/08/07 09:45:08;;;;;;;4.63;1.23;;;;;;;;;;5051648;28;20036;-64
2021/08/07 09:47:43;;;;;;;4.20;0.70;;;;;;;;;;5045329;28;20090;-62
2021/08/07 09:50:20;;;;;;;1.63;0.68;;;;;;;;;;5051449;28;20472;-63
2021/08/07 09:52:46;;;;;;;3.90;0.57;;;;;;;;;;5050031;28;20060;-63
2021/08/07 09:55:11;;;;;;;0.85;0.70;;;;;;;;;;5057817;28;20048;-62
2021/08/07 09:57:41;;;;;;;2.53;0.80;;;;;;;;;;5060701;28;20033;-63
2021/08/07 10:00:07;;;;;;;4.60;0.82;;;;;;;;;;5060028;28;20044;-63
2021/08/07 10:02:37;;;;;;;2.70;0.63;;;;;;;;;;5060042;28;20036;-63
2021/08/07 10:05:08;;;;;;;1.27;0.40;;;;;;;;;;5059993;28;20044;-63
2021/08/07 10:07:34;;;;;;;2.30;0.70;;;;;;;;;;5057172;28;20032;-62
2021/08/07 10:09:59;;;;;;;3.58;0.85;;;;;;;;;;5061405;28;20032;-62
2021/08/07 10:12:25;;;;;;;5.68;0.80;;;;;;;;;;5059935;28;20029;-62
2021/08/07 10:14:51;;;;;;;1.23;0.30;;;;;;;;;;5041552;28;20077;-63
2021/08/07 10:17:18;;;;;;;2.78;0.70;;;;;;;;;;5038252;28;20071;-62
2021/08/07 10:19:48;;;;;;;1.60;0.40;;;;;;;;;;5060379;28;20443;-62
2021/08/07 10:22:17;;;;;;;3.63;0.70;;;;;;;;;;5058221;28;20033;-62
2021/08/07 10:24:47;;;;;;;1.50;0.52;;;;;;;;;;5053282;28;20033;-62
2021/08/07 10:27:20;;;;;;;1.38;0.50;;;;;;;;;;5047331;28;20511;-63
2021/08/07 10:29:48;;;;;;;4.13;1.00;;;;;;;;;;5018805;28;20052;-62
2021/08/07 10:32:16;;;;;;;1.75;0.63;;;;;;;;;;5032352;28;20053;-63
2021/08/07 10:34:51;;;;;;;1.98;0.57;;;;;;;;;;5036209;28;20028;-63
2021/08/07 10:37:20;;;;;;;1.30;0.50;;;;;;;;;;5022983;28;20123;-62
2021/08/07 10:39:47;;;;;;;2.47;0.73;;;;;;;;;;5034853;28;20587;-62
2021/08/07 10:42:16;;;;;;;2.33;0.65;;;;;;;;;;5033604;28;20041;-62
2021/08/07 10:44:43;;;;;;;3.42;0.60;;;;;;;;;;5034152;28;20048;-63
2021/08/07 10:47:09;;;;;;;1.15;0.30;;;;;;;;;;5035155;28;20495;-61
2021/08/07 10:49:39;;;;;;;2.33;0.60;;;;;;;;;;5002300;28;20029;-62
2021/08/07 10:52:20;;;;;;;1.52;0.60;;;;;;;;;;5034812;28;20044;-63
2021/08/07 10:54:45;;;;;;;2.33;0.43;;;;;;;;;;5033962;28;20369;-62
2021/08/07 10:57:30;;;;;;;2.35;0.73;;;;;;;;;;5031514;28;21122;-62
2021/08/07 10:59:56;;;;;;;2.20;0.77;;;;;;;;;;5032632;28;20025;-62
2021/08/07 11:02:22;;;;;;;5.05;0.68;;;;;;;;;;5034112;28;20039;-62
2021/08/07 11:04:50;;;;;;;2.17;0.63;;;;;;;;;;5035537;28;20044;-63
2021/08/07 11:07:19;;;;;;;1.05;0.40;;;;;;;;;;5032883;28;20032;-63
2021/08/07 11:09:59;;;;;;;1.95;0.65;;;;;;;;;;5031709;28;20024;-64
2021/08/07 11:12:25;;;;;;;2.85;0.68;;;;;;;;;;5029063;28;20093;-63
2021/08/07 11:14:52;;;;;;;2.55;0.50;;;;;;;;;;5034838;28;20025;-62
2021/08/07 11:17:17;;;;;;;0.63;0.25;;;;;;;;;;5033789;28;20044;-63
2021/08/07 11:19:46;;;;;;;4.60;0.60;;;;;;;;;;5034432;28;20044;-63
2021/08/07 11:22:12;;;;;;;2.30;0.60;;;;;;;;;;5032452;28;20028;-64
2021/08/07 11:24:46;;;;;;;3.33;0.63;;;;;;;;;;5032395;28;20032;-63
2021/08/07 11:27:17;;;;;;;1.92;0.60;;;;;;;;;;5031455;28;20784;-63
2021/08/07 11:30:04;;;;;;;1.48;0.40;;;;;;;;;;5033832;28;20029;-64
2021/08/07 11:32:30;;;;;;;0.85;0.30;;;;;;;;;;5046579;28;20119;-63
2021/08/07 11:35:00;;;;;;;2.70;0.40;;;;;;;;;;5033523;28;20033;-64
2021/08/07 11:37:25;;;;;;;0.60;0.15;;;;;;;;;;5029740;28;20044;-64
2021/08/07 11:40:06;;;;;;;1.23;0.22;;;;;;;;;;5010557;28;20036;-64
2021/08/07 11:42:32;;;;;;;0.93;0.30;;;;;;;;;;5039170;28;20072;-64
2021/08/07 11:45:03;;;;;;;3.88;0.60;;;;;;;;;;5031296;28;20111;-64
2021/08/07 11:47:29;;;;;;;1.98;0.40;;;;;;;;;;5032736;28;20190;-62
2021/08/07 11:49:57;;;;;;;1.90;0.43;;;;;;;;;;5033862;28;20612;-64
2021/08/07 11:52:27;;;;;;;1.35;0.50;;;;;;;;;;5031797;28;20561;-64
2021/08/07 11:54:53;;;;;;;1.63;0.60;;;;;;;;;;5046798;28;20716;-64
2021/08/07 11:57:23;;;;;;;3.15;0.60;;;;;;;;;;5032886;28;20107;-62
2021/08/07 11:59:51;;;;;;;2.33;0.47;;;;;;;;;;5032096;28;20029;-63
2021/08/07 12:02:21;;;;;;;1.48;0.50;;;;;;;;;;5038186;28;20029;-63
2021/08/07 12:05:09;;;;;;;0.80;0.45;;;;;;;;;;5036311;28;20032;-64
2021/08/07 12:07:36;;;;;;;3.50;0.55;;;;;;;;;;5037850;28;20682;-65
2021/08/07 12:10:06;;;;;;;1.00;0.28;;;;;;;;;;5043969;28;20021;-64
2021/08/07 12:12:32;;;;;;;3.10;0.50;;;;;;;;;;5033173;28;20502;-62
2021/08/07 12:15:05;;;;;;;2.10;0.57;;;;;;;;;;5039601;28;20025;-62
2021/08/07 12:17:33;;;;;;;2.25;0.68;;;;;;;;;;5036923;28;20649;-63
2021/08/07 12:20:00;;;;;;;0.52;0.30;;;;;;;;;;5034741;28;20078;-62
2021/08/07 12:22:30;;;;;;;1.73;0.60;;;;;;;;;;5036913;28;21945;-62
2021/08/07 12:25:03;;;;;;;0.57;0.30;;;;;;;;;;5041813;28;20128;-63
2021/08/07 12:27:33;;;;;;;2.13;0.57;;;;;;;;;;5035042;28;20040;-62
2021/08/07 12:30:04;;;;;;;1.75;0.38;;;;;;;;;;5009852;28;20037;-62
2021/08/07 12:32:37;;;;;;;1.38;0.60;;;;;;;;;;5040139;28;20141;-63
2021/08/07 12:35:03;;;;;;;1.60;0.65;;;;;;;;;;5034375;28;20033;-63
2021/08/07 12:37:32;;;;;;;1.48;0.40;;;;;;;;;;5017302;28;20095;-62
2021/08/07 12:39:59;;;;;;;2.08;0.55;;;;;;;;;;5036602;28;20036;-63
2021/08/07 12:42:29;;;;;;;0.60;0.30;;;;;;;;;;5037049;28;20041;-63
2021/08/07 12:45:02;;;;;;;2.60;0.70;;;;;;;;;;5033466;28;20032;-62
2021/08/07 12:47:29;;;;;;;0.85;0.45;;;;;;;;;;5017569;28;20135;-63
2021/08/07 12:49:55;;;;;;;1.35;0.30;;;;;;;;;;5036119;28;20025;-63
2021/08/07 12:52:20;;;;;;;1.48;0.63;;;;;;;;;;5018036;28;20308;-63
2021/08/07 12:55:08;;;;;;;1.65;0.30;;;;;;;;;;5036383;28;20040;-61
2021/08/07 12:57:36;;;;;;;1.73;0.40;;;;;;;;;;5035810;28;20033;-61
2021/08/07 13:00:04;;;;;;;2.53;0.50;;;;;;;;;;5034485;28;20155;-62
2021/08/07 13:02:32;;;;;;;2.30;0.40;;;;;;;;;;5049252;28;20071;-63
2021/08/07 13:04:58;;;;;;;2.13;0.40;;;;;;;;;;5036305;28;20072;-63
2021/08/07 13:07:27;;;;;;;1.88;0.60;;;;;;;;;;5036208;28;20132;-61
2021/08/07 13:10:12;;;;;;;1.80;0.60;;;;;;;;;;5037992;28;20090;-61
2021/08/07 13:12:43;;;;;;;2.20;0.28;;;;;;;;;;5034814;28;20028;-62
2021/08/07 13:15:09;;;;;;;1.67;0.22;;;;;;;;;;5037402;28;20460;-61
2021/08/07 13:17:38;;;;;;;3.88;0.60;;;;;;;;;;5024675;28;20089;-61
2021/08/07 13:20:10;;;;;;;1.55;0.47;;;;;;;;;;5051234;28;20044;-62
2021/08/07 13:22:42;;;;;;;1.00;0.52;;;;;;;;;;5022968;28;20048;-63
2021/08/07 13:25:14;;;;;;;1.77;0.50;;;;;;;;;;5034734;28;20044;-62
2021/08/07 13:27:42;;;;;;;1.65;0.50;;;;;;;;;;5034040;28;20094;-62
2021/08/07 13:30:13;;;;;;;2.08;0.20;;;;;;;;;;5035675;28;20032;-62
2021/08/07 13:32:41;;;;;;;2.60;0.50;;;;;;;;;;5043498;28;20060;-62
2021/08/07 13:35:11;;;;;;;1.55;0.38;;;;;;;;;;5036204;28;20551;-62
2021/08/07 13:37:38;;;;;;;0.88;0.43;;;;;;;;;;5040890;28;20067;-62
2021/08/07 13:40:07;;;;;;;1.85;0.52;;;;;;;;;;5034040;28;20037;-62
2021/08/07 13:42:40;;;;;;;0.50;0.50;;;;;;;;;;5037368;28;20028;-61
2021/08/07 13:45:06;;;;;;;4.53;0.90;;;;;;;;;;5035944;28;20033;-64
2021/08/07 13:47:31;;;;;;;1.58;0.82;;;;;;;;;;5033378;28;20041;-61
2021/08/07 13:49:57;;;;;;;1.67;0.70;;;;;;;;;;5025668;28;20044;-62
2021/08/07 13:52:22;;;;;;;1.85;0.60;;;;;;;;;;5034771;28;20040;-65
2021/08/07 13:54:55;;;;;;;3.70;0.57;;;;;;;;;;5034526;28;20036;-64
2021/08/07 13:57:24;;;;;;;3.35;0.70;;;;;;;;;;5019983;28;20652;-62
2021/08/07 13:59:50;;;;;;;2.40;0.60;;;;;;;;;;5035793;28;20068;-62
2021/08/07 14:02:18;;;;;;;4.53;0.82;;;;;;;;;;5049199;28;20033;-62
2021/08/07 14:04:46;;;;;;;4.38;1.02;;;;;;;;;;5036752;28;20090;-61
2021/08/07 14:07:12;;;;;;;2.15;0.80;;;;;;;;;;5033713;28;20047;-62
2021/08/07 14:09:39;;;;;;;0.88;0.30;;;;;;;;;;5033174;28;20025;-61
2021/08/07 14:12:08;;;;;;;7.10;0.90;;;;;;;;;;5033995;28;20032;-62
2021/08/07 14:14:36;;;;;;;1.00;0.40;;;;;;;;;;5035783;28;20045;-61
2021/08/07 14:17:02;;;;;;;2.75;0.77;;;;;;;;;;5031515;28;20029;-62
2021/08/07 14:23:04;;;;;;;4.88;0.70;;;;;;;;;;5035433;28;20478;-62
2021/08/07 14:25:29;;;;;;;0.60;0.28;;;;;;;;;;5022144;28;20041;-63
2021/08/07 14:27:55;;;;;;;2.75;0.55;;;;;;;;;;5033610;28;20503;-63
2021/08/07 14:30:24;;;;;;;1.08;0.60;;;;;;;;;;5031736;28;20059;-62
2021/08/07 14:32:49;;;;;;;0.47;0.30;;;;;;;;;;5034508;28;20128;-63
2021/08/07 14:35:15;;;;;;;3.47;0.38;;;;;;;;;;5033208;28;20039;-64
2021/08/07 14:41:16;;;;;;;2.17;0.47;;;;;;;;;;5033412;28;20044;-62
2021/08/07 14:43:44;;;;;;;2.08;0.50;;;;;;;;;;5032730;28;20036;-63
2021/08/07 14:46:12;;;;;;;1.23;0.47;;;;;;;;;;5034435;28;20056;-62
2021/08/07 14:48:41;;;;;;;2.92;0.50;;;;;;;;;;5034803;28;20068;-62
2021/08/07 14:51:06;;;;;;;2.00;0.60;;;;;;;;;;5033512;28;20028;-63
2021/08/07 14:53:32;;;;;;;5.85;0.70;;;;;;;;;;5034571;28;20082;-63
2021/08/07 14:55:59;;;;;;;3.70;0.80;;;;;;;;;;5040848;28;20060;-63